sensor_id;sensor_type;location;lat;lon;timestamp;pressure;altitude;pressure_sealevel;temperature;humidity
77288;BME280;66345;42.694;23.346;2023-03-01T00:02:16;96013.94;;;6.30;77.38
77288;BME280;66345;42.694;23.346;2023-03-01T00:04:41;96016.53;;;6.12;78.43
77288;BME280;66345;42.694;23.346;2023-03-01T00:07:07;96013.38;;;6.26;77.72
77288;BME280;66345;42.694;23.346;2023-03-01T00:09:32;96008.66;;;6.30;77.35
77288;BME280;66345;42.694;23.346;2023-03-01T00:11:58;96017.66;;;6.09;78.17
77288;BME280;66345;42.694;23.346;2023-03-01T00:14:23;96007.66;;;6.13;78.50
77288;BME280;66345;42.694;23.346;2023-03-01T00:16:49;96006.47;;;6.25;77.62
77288;BME280;66345;42.694;23.346;2023-03-01T00:19:19;96006.69;;;6.14;77.61
77288;BME280;66345;42.694;23.346;2023-03-01T00:21:44;96006.13;;;6.10;77.89
77288;BME280;66345;42.694;23.346;2023-03-01T00:24:10;96003.88;;;5.98;78.09
77288;BME280;66345;42.694;23.346;2023-03-01T00:26:36;95998.88;;;5.95;78.32
77288;BME280;66345;42.694;23.346;2023-03-01T00:29:02;95995.47;;;5.84;78.69
77288;BME280;66345;42.694;23.346;2023-03-01T00:31:30;95989.19;;;5.95;78.57
77288;BME280;66345;42.694;23.346;2023-03-01T00:33:58;95982.34;;;6.02;78.20
77288;BME280;66345;42.694;23.346;2023-03-01T00:36:30;95975.03;;;5.96;77.66
77288;BME280;66345;42.694;23.346;2023-03-01T00:38:56;95986.16;;;5.90;78.37
77288;BME280;66345;42.694;23.346;2023-03-01T00:41:22;95981.97;;;5.88;77.95
77288;BME280;66345;42.694;23.346;2023-03-01T00:43:48;95971.88;;;5.93;78.33
77288;BME280;66345;42.694;23.346;2023-03-01T00:46:17;95973.22;;;5.97;78.02
77288;BME280;66345;42.694;23.346;2023-03-01T00:48:43;95976.47;;;5.81;78.62
77288;BME280;66345;42.694;23.346;2023-03-01T00:51:18;95976.00;;;5.68;79.51
77288;BME280;66345;42.694;23.346;2023-03-01T00:53:44;95982.38;;;5.65;78.53
77288;BME280;66345;42.694;23.346;2023-03-01T00:56:11;95969.22;;;5.65;79.65
77288;BME280;66345;42.694;23.346;2023-03-01T00:58:38;95979.06;;;5.63;78.87
77288;BME280;66345;42.694;23.346;2023-03-01T01:01:11;95975.56;;;5.72;79.22
77288;BME280;66345;42.694;23.346;2023-03-01T01:03:54;95966.81;;;5.72;78.24
77288;BME280;66345;42.694;23.346;2023-03-01T01:06:25;95977.56;;;5.61;79.35
77288;BME280;66345;42.694;23.346;2023-03-01T01:08:52;95983.34;;;5.64;79.12
77288;BME280;66345;42.694;23.346;2023-03-01T01:11:19;95982.44;;;5.55;79.49
77288;BME280;66345;42.694;23.346;2023-03-01T01:13:46;95987.13;;;5.62;79.81
77288;BME280;66345;42.694;23.346;2023-03-01T01:16:12;95978.75;;;5.66;79.08
77288;BME280;66345;42.694;23.346;2023-03-01T01:18:38;95979.47;;;5.68;78.97
77288;BME280;66345;42.694;23.346;2023-03-01T01:21:05;95978.50;;;5.69;78.46
77288;BME280;66345;42.694;23.346;2023-03-01T01:23:31;95975.75;;;5.61;78.77
77288;BME280;66345;42.694;23.346;2023-03-01T01:25:56;95971.22;;;5.53;78.70
77288;BME280;66345;42.694;23.346;2023-03-01T01:28:22;95974.09;;;5.60;78.66
77288;BME280;66345;42.694;23.346;2023-03-01T01:30:47;95970.28;;;5.72;78.05
77288;BME280;66345;42.694;23.346;2023-03-01T01:33:13;95976.25;;;5.74;77.81
77288;BME280;66345;42.694;23.346;2023-03-01T01:35:38;95974.22;;;5.68;77.98
77288;BME280;66345;42.694;23.346;2023-03-01T01:38:04;95979.47;;;5.68;77.79
77288;BME280;66345;42.694;23.346;2023-03-01T01:40:29;95983.19;;;5.66;77.28
77288;BME280;66345;42.694;23.346;2023-03-01T01:42:55;95991.72;;;5.60;77.45
77288;BME280;66345;42.694;23.346;2023-03-01T01:45:36;95985.72;;;5.67;77.59
77288;BME280;66345;42.694;23.346;2023-03-01T01:48:14;95986.47;;;5.77;76.75
77288;BME280;66345;42.694;23.346;2023-03-01T01:50:42;95998.00;;;5.76;76.96
77288;BME280;66345;42.694;23.346;2023-03-01T01:53:12;95986.66;;;5.66;76.02
77288;BME280;66345;42.694;23.346;2023-03-01T01:55:43;95988.72;;;5.72;76.49
77288;BME280;66345;42.694;23.346;2023-03-01T01:58:12;95984.84;;;5.67;75.90
77288;BME280;66345;42.694;23.346;2023-03-01T02:00:42;95978.97;;;5.82;74.83
77288;BME280;66345;42.694;23.346;2023-03-01T02:03:10;95966.50;;;5.84;75.13
77288;BME280;66345;42.694;23.346;2023-03-01T02:08:13;95960.91;;;5.88;75.07
77288;BME280;66345;42.694;23.346;2023-03-01T02:10:40;95968.88;;;5.78;74.99
77288;BME280;66345;42.694;23.346;2023-03-01T02:13:06;95960.41;;;5.84;75.19
77288;BME280;66345;42.694;23.346;2023-03-01T02:15:35;95969.09;;;5.94;74.23
77288;BME280;66345;42.694;23.346;2023-03-01T02:18:05;95959.56;;;5.83;74.81
77288;BME280;66345;42.694;23.346;2023-03-01T02:23:00;95955.34;;;6.00;73.93
77288;BME280;66345;42.694;23.346;2023-03-01T02:30:45;95964.38;;;5.88;74.67
77288;BME280;66345;42.694;23.346;2023-03-01T02:33:32;95965.00;;;5.82;75.20
77288;BME280;66345;42.694;23.346;2023-03-01T02:36:04;95966.88;;;5.90;74.78
77288;BME280;66345;42.694;23.346;2023-03-01T02:38:32;95974.66;;;5.81;75.65
77288;BME280;66345;42.694;23.346;2023-03-01T02:40:58;95967.66;;;5.72;76.52
77288;BME280;66345;42.694;23.346;2023-03-01T02:43:29;95967.41;;;5.66;77.24
77288;BME280;66345;42.694;23.346;2023-03-01T02:45:59;95976.53;;;5.71;76.41
77288;BME280;66345;42.694;23.346;2023-03-01T02:48:24;95959.00;;;5.62;77.34
77288;BME280;66345;42.694;23.346;2023-03-01T02:51:11;95960.22;;;5.68;76.59
77288;BME280;66345;42.694;23.346;2023-03-01T02:54:01;95966.31;;;5.68;76.09
77288;BME280;66345;42.694;23.346;2023-03-01T02:56:32;95957.72;;;5.66;77.39
77288;BME280;66345;42.694;23.346;2023-03-01T02:58:58;95960.41;;;5.84;76.33
77288;BME280;66345;42.694;23.346;2023-03-01T03:01:26;95968.28;;;5.84;75.69
77288;BME280;66345;42.694;23.346;2023-03-01T03:04:10;95960.97;;;5.78;76.27
77288;BME280;66345;42.694;23.346;2023-03-01T03:06:36;95960.47;;;5.74;76.54
77288;BME280;66345;42.694;23.346;2023-03-01T03:09:04;95963.22;;;5.73;76.49
77288;BME280;66345;42.694;23.346;2023-03-01T03:11:30;95964.78;;;5.66;76.53
77288;BME280;66345;42.694;23.346;2023-03-01T03:13:59;95953.16;;;5.58;76.76
77288;BME280;66345;42.694;23.346;2023-03-01T03:16:24;95959.91;;;5.71;76.84
77288;BME280;66345;42.694;23.346;2023-03-01T03:18:50;95966.44;;;5.67;76.72
77288;BME280;66345;42.694;23.346;2023-03-01T03:21:16;95965.41;;;5.77;75.99
77288;BME280;66345;42.694;23.346;2023-03-01T03:23:42;95961.38;;;5.55;76.92
77288;BME280;66345;42.694;23.346;2023-03-01T03:26:08;95964.97;;;5.54;77.38
77288;BME280;66345;42.694;23.346;2023-03-01T03:28:34;95970.56;;;5.42;77.93
77288;BME280;66345;42.694;23.346;2023-03-01T03:30:59;95965.25;;;5.51;77.46
77288;BME280;66345;42.694;23.346;2023-03-01T03:33:32;95969.13;;;5.57;77.44
77288;BME280;66345;42.694;23.346;2023-03-01T03:35:58;95975.84;;;5.42;77.59
77288;BME280;66345;42.694;23.346;2023-03-01T03:38:24;95980.88;;;5.63;77.20
77288;BME280;66345;42.694;23.346;2023-03-01T03:41:01;95971.06;;;5.55;77.39
77288;BME280;66345;42.694;23.346;2023-03-01T03:43:28;95975.91;;;5.60;76.59
77288;BME280;66345;42.694;23.346;2023-03-01T03:45:54;95978.66;;;5.58;77.31
77288;BME280;66345;42.694;23.346;2023-03-01T03:48:19;95988.63;;;5.37;77.86
77288;BME280;66345;42.694;23.346;2023-03-01T03:50:50;95974.69;;;5.54;77.82
77288;BME280;66345;42.694;23.346;2023-03-01T03:53:16;95986.31;;;5.51;77.69
77288;BME280;66345;42.694;23.346;2023-03-01T03:55:42;95983.16;;;5.48;77.61
77288;BME280;66345;42.694;23.346;2023-03-01T03:58:10;95978.75;;;5.66;76.79
77288;BME280;66345;42.694;23.346;2023-03-01T04:00:41;95981.53;;;5.74;76.51
77288;BME280;66345;42.694;23.346;2023-03-01T04:03:07;95987.16;;;5.52;77.51
77288;BME280;66345;42.694;23.346;2023-03-01T04:05:33;95992.13;;;5.55;77.34
77288;BME280;66345;42.694;23.346;2023-03-01T04:07:59;95989.59;;;5.63;77.13
77288;BME280;66345;42.694;23.346;2023-03-01T04:10:36;95990.84;;;5.59;76.61
77288;BME280;66345;42.694;23.346;2023-03-01T04:13:03;95990.53;;;5.44;77.95
77288;BME280;66345;42.694;23.346;2023-03-01T04:15:28;95995.22;;;5.41;77.25
77288;BME280;66345;42.694;23.346;2023-03-01T04:17:54;95994.00;;;5.45;77.48
77288;BME280;66345;42.694;23.346;2023-03-01T04:20:26;95996.63;;;5.45;78.10
77288;BME280;66345;42.694;23.346;2023-03-01T04:22:53;95993.63;;;5.57;77.12
77288;BME280;66345;42.694;23.346;2023-03-01T04:25:24;95985.16;;;5.64;77.35
77288;BME280;66345;42.694;23.346;2023-03-01T04:27:49;95981.69;;;5.63;77.11
77288;BME280;66345;42.694;23.346;2023-03-01T04:30:15;95991.00;;;5.57;76.90
77288;BME280;66345;42.694;23.346;2023-03-01T04:32:40;95985.22;;;5.54;77.28
77288;BME280;66345;42.694;23.346;2023-03-01T04:35:06;95985.13;;;5.46;77.27
77288;BME280;66345;42.694;23.346;2023-03-01T04:37:31;95990.13;;;5.39;77.63
77288;BME280;66345;42.694;23.346;2023-03-01T04:39:57;95997.81;;;5.23;77.75
77288;BME280;66345;42.694;23.346;2023-03-01T04:42:22;95989.59;;;5.26;78.15
77288;BME280;66345;42.694;23.346;2023-03-01T04:44:48;95978.38;;;5.34;78.10
77288;BME280;66345;42.694;23.346;2023-03-01T04:47:16;95976.50;;;5.16;78.64
77288;BME280;66345;42.694;23.346;2023-03-01T04:49:41;95980.38;;;5.12;79.11
77288;BME280;66345;42.694;23.346;2023-03-01T04:52:07;95972.47;;;5.12;78.55
77288;BME280;66345;42.694;23.346;2023-03-01T04:54:34;95979.13;;;5.16;78.36
77288;BME280;66345;42.694;23.346;2023-03-01T04:57:01;95975.22;;;5.20;78.01
77288;BME280;66345;42.694;23.346;2023-03-01T04:59:27;95973.72;;;5.18;79.00
77288;BME280;66345;42.694;23.346;2023-03-01T05:01:55;95973.19;;;5.14;78.94
77288;BME280;66345;42.694;23.346;2023-03-01T05:04:22;95984.66;;;5.23;78.66
77288;BME280;66345;42.694;23.346;2023-03-01T05:06:47;95984.19;;;5.27;78.64
77288;BME280;66345;42.694;23.346;2023-03-01T05:09:13;95987.53;;;5.29;77.83
77288;BME280;66345;42.694;23.346;2023-03-01T05:11:38;95982.00;;;5.23;78.51
77288;BME280;66345;42.694;23.346;2023-03-01T05:14:05;95985.88;;;5.19;78.51
77288;BME280;66345;42.694;23.346;2023-03-01T05:16:32;95981.28;;;5.31;78.98
77288;BME280;66345;42.694;23.346;2023-03-01T05:18:58;95983.34;;;5.37;78.08
77288;BME280;66345;42.694;23.346;2023-03-01T05:21:24;95992.50;;;5.33;78.26
77288;BME280;66345;42.694;23.346;2023-03-01T05:23:49;95988.31;;;5.40;78.31
77288;BME280;66345;42.694;23.346;2023-03-01T05:26:17;95987.75;;;5.46;78.17
77288;BME280;66345;42.694;23.346;2023-03-01T05:28:43;95983.00;;;5.49;77.53
77288;BME280;66345;42.694;23.346;2023-03-01T05:31:09;95987.22;;;5.33;78.30
77288;BME280;66345;42.694;23.346;2023-03-01T05:33:41;95991.94;;;5.39;78.58
77288;BME280;66345;42.694;23.346;2023-03-01T05:36:07;95996.50;;;5.37;78.52
77288;BME280;66345;42.694;23.346;2023-03-01T05:38:35;95989.34;;;5.29;78.07
77288;BME280;66345;42.694;23.346;2023-03-01T05:41:01;95985.00;;;5.38;78.27
77288;BME280;66345;42.694;23.346;2023-03-01T05:43:31;95993.28;;;5.43;77.56
77288;BME280;66345;42.694;23.346;2023-03-01T05:45:59;95992.09;;;5.27;78.51
77288;BME280;66345;42.694;23.346;2023-03-01T05:48:25;95993.13;;;4.97;79.62
77288;BME280;66345;42.694;23.346;2023-03-01T05:50:51;95999.72;;;5.21;78.34
77288;BME280;66345;42.694;23.346;2023-03-01T05:53:18;95998.91;;;5.20;78.52
77288;BME280;66345;42.694;23.346;2023-03-01T05:55:47;96001.91;;;5.35;78.49
77288;BME280;66345;42.694;23.346;2023-03-01T05:58:15;96008.81;;;5.36;77.96
77288;BME280;66345;42.694;23.346;2023-03-01T06:00:41;96013.03;;;5.29;78.13
77288;BME280;66345;42.694;23.346;2023-03-01T06:03:10;96016.19;;;5.33;78.16
77288;BME280;66345;42.694;23.346;2023-03-01T06:05:36;96009.88;;;5.53;77.70
77288;BME280;66345;42.694;23.346;2023-03-01T06:08:02;96015.56;;;5.48;77.26
77288;BME280;66345;42.694;23.346;2023-03-01T06:10:28;96021.75;;;5.29;78.79
77288;BME280;66345;42.694;23.346;2023-03-01T06:12:54;96023.78;;;5.36;78.27
77288;BME280;66345;42.694;23.346;2023-03-01T06:15:19;96020.25;;;5.54;77.25
77288;BME280;66345;42.694;23.346;2023-03-01T06:17:45;96023.88;;;5.53;76.86
77288;BME280;66345;42.694;23.346;2023-03-01T06:20:17;96040.44;;;5.26;79.05
77288;BME280;66345;42.694;23.346;2023-03-01T06:22:44;96032.94;;;5.32;78.04
77288;BME280;66345;42.694;23.346;2023-03-01T06:25:11;96032.63;;;5.44;78.65
77288;BME280;66345;42.694;23.346;2023-03-01T06:27:37;96028.22;;;5.35;78.95
77288;BME280;66345;42.694;23.346;2023-03-01T06:30:03;96030.56;;;5.38;77.77
77288;BME280;66345;42.694;23.346;2023-03-01T06:32:29;96030.13;;;5.43;77.96
77288;BME280;66345;42.694;23.346;2023-03-01T06:34:56;96032.66;;;5.35;78.42
77288;BME280;66345;42.694;23.346;2023-03-01T06:37:21;96027.22;;;5.46;77.31
77288;BME280;66345;42.694;23.346;2023-03-01T06:39:46;96032.97;;;5.59;77.33
77288;BME280;66345;42.694;23.346;2023-03-01T06:42:12;96029.13;;;5.53;77.06
77288;BME280;66345;42.694;23.346;2023-03-01T06:44:37;96032.75;;;5.80;75.94
77288;BME280;66345;42.694;23.346;2023-03-01T06:47:03;96038.13;;;5.51;76.11
77288;BME280;66345;42.694;23.346;2023-03-01T06:49:29;96034.06;;;5.66;75.88
77288;BME280;66345;42.694;23.346;2023-03-01T06:51:55;96034.75;;;5.68;75.92
77288;BME280;66345;42.694;23.346;2023-03-01T06:54:23;96031.06;;;5.51;76.97
77288;BME280;66345;42.694;23.346;2023-03-01T06:56:49;96036.31;;;5.51;77.00
77288;BME280;66345;42.694;23.346;2023-03-01T06:59:16;96031.88;;;5.62;75.90
77288;BME280;66345;42.694;23.346;2023-03-01T07:01:42;96036.69;;;5.66;76.62
77288;BME280;66345;42.694;23.346;2023-03-01T07:04:09;96025.69;;;5.53;76.55
77288;BME280;66345;42.694;23.346;2023-03-01T07:06:35;96041.34;;;5.45;77.65
77288;BME280;66345;42.694;23.346;2023-03-01T07:09:00;96040.16;;;5.29;77.93
77288;BME280;66345;42.694;23.346;2023-03-01T07:11:26;96042.00;;;5.56;77.16
77288;BME280;66345;42.694;23.346;2023-03-01T07:13:51;96036.47;;;5.60;77.13
77288;BME280;66345;42.694;23.346;2023-03-01T07:16:16;96033.47;;;5.72;76.99
77288;BME280;66345;42.694;23.346;2023-03-01T07:18:42;96023.41;;;5.95;76.00
77288;BME280;66345;42.694;23.346;2023-03-01T07:21:08;96028.41;;;5.98;75.77
77288;BME280;66345;42.694;23.346;2023-03-01T07:23:34;96021.13;;;6.10;74.43
77288;BME280;66345;42.694;23.346;2023-03-01T07:26:00;96023.22;;;6.06;75.18
77288;BME280;66345;42.694;23.346;2023-03-01T07:28:26;96017.59;;;6.19;74.57
77288;BME280;66345;42.694;23.346;2023-03-01T07:30:51;96019.56;;;5.90;75.24
77288;BME280;66345;42.694;23.346;2023-03-01T07:33:17;96019.50;;;5.72;75.49
77288;BME280;66345;42.694;23.346;2023-03-01T07:35:42;96020.13;;;5.83;75.36
77288;BME280;66345;42.694;23.346;2023-03-01T07:38:08;96018.47;;;5.92;75.43
77288;BME280;66345;42.694;23.346;2023-03-01T07:40:34;96007.19;;;6.00;74.42
77288;BME280;66345;42.694;23.346;2023-03-01T07:43:00;96011.66;;;6.17;74.07
77288;BME280;66345;42.694;23.346;2023-03-01T07:45:27;96017.16;;;5.96;73.79
77288;BME280;66345;42.694;23.346;2023-03-01T07:47:53;96020.13;;;6.11;73.75
77288;BME280;66345;42.694;23.346;2023-03-01T07:50:19;96005.38;;;6.00;74.09
77288;BME280;66345;42.694;23.346;2023-03-01T07:52:46;96010.63;;;6.28;72.61
77288;BME280;66345;42.694;23.346;2023-03-01T07:55:12;96004.53;;;6.45;72.25
77288;BME280;66345;42.694;23.346;2023-03-01T07:57:38;96002.41;;;6.49;71.60
77288;BME280;66345;42.694;23.346;2023-03-01T08:00:05;95999.09;;;6.29;72.22
77288;BME280;66345;42.694;23.346;2023-03-01T08:02:31;95984.19;;;6.55;71.68
77288;BME280;66345;42.694;23.346;2023-03-01T08:04:56;95983.53;;;6.97;70.17
77288;BME280;66345;42.694;23.346;2023-03-01T08:07:22;96004.34;;;6.64;70.76
77288;BME280;66345;42.694;23.346;2023-03-01T08:09:47;95988.81;;;6.79;70.41
77288;BME280;66345;42.694;23.346;2023-03-01T08:12:12;95988.13;;;7.21;68.83
77288;BME280;66345;42.694;23.346;2023-03-01T08:14:38;95988.53;;;6.82;69.85
77288;BME280;66345;42.694;23.346;2023-03-01T08:17:04;95987.94;;;6.71;70.43
77288;BME280;66345;42.694;23.346;2023-03-01T08:19:30;95984.88;;;7.01;69.49
77288;BME280;66345;42.694;23.346;2023-03-01T08:21:55;95986.06;;;7.33;68.39
77288;BME280;66345;42.694;23.346;2023-03-01T08:24:23;95982.53;;;7.24;68.67
77288;BME280;66345;42.694;23.346;2023-03-01T08:26:49;95990.31;;;7.26;68.66
77288;BME280;66345;42.694;23.346;2023-03-01T08:29:15;95986.50;;;7.20;68.99
77288;BME280;66345;42.694;23.346;2023-03-01T08:31:40;95985.19;;;7.24;68.63
77288;BME280;66345;42.694;23.346;2023-03-01T08:34:12;95985.94;;;6.90;70.25
77288;BME280;66345;42.694;23.346;2023-03-01T08:36:40;95979.75;;;7.00;69.47
77288;BME280;66345;42.694;23.346;2023-03-01T08:39:07;95978.59;;;7.02;69.77
77288;BME280;66345;42.694;23.346;2023-03-01T08:41:33;95979.56;;;7.53;67.93
77288;BME280;66345;42.694;23.346;2023-03-01T08:43:58;95982.00;;;7.46;67.78
77288;BME280;66345;42.694;23.346;2023-03-01T08:46:33;95983.53;;;7.23;68.65
77288;BME280;66345;42.694;23.346;2023-03-01T08:48:59;95984.00;;;7.18;68.22
77288;BME280;66345;42.694;23.346;2023-03-01T08:51:25;95970.19;;;6.99;68.50
77288;BME280;66345;42.694;23.346;2023-03-01T08:53:52;95978.41;;;7.21;67.35
77288;BME280;66345;42.694;23.346;2023-03-01T08:56:18;95987.00;;;7.23;67.29
77288;BME280;66345;42.694;23.346;2023-03-01T08:58:48;95983.75;;;7.64;66.67
77288;BME280;66345;42.694;23.346;2023-03-01T09:01:17;95998.66;;;7.47;66.47
77288;BME280;66345;42.694;23.346;2023-03-01T09:03:43;95986.63;;;7.44;65.42
77288;BME280;66345;42.694;23.346;2023-03-01T09:06:10;95998.84;;;7.19;66.14
77288;BME280;66345;42.694;23.346;2023-03-01T09:08:38;95987.66;;;7.00;66.48
77288;BME280;66345;42.694;23.346;2023-03-01T09:11:09;95987.22;;;7.04;66.66
77288;BME280;66345;42.694;23.346;2023-03-01T09:13:36;95989.53;;;7.33;66.21
77288;BME280;66345;42.694;23.346;2023-03-01T09:16:03;95989.69;;;7.32;66.63
77288;BME280;66345;42.694;23.346;2023-03-01T09:18:29;95980.59;;;7.60;65.69
77288;BME280;66345;42.694;23.346;2023-03-01T09:21:06;95980.25;;;7.97;64.20
77288;BME280;66345;42.694;23.346;2023-03-01T09:23:35;95986.81;;;7.25;66.77
77288;BME280;66345;42.694;23.346;2023-03-01T09:26:05;95977.09;;;7.51;66.28
77288;BME280;66345;42.694;23.346;2023-03-01T09:28:30;95978.97;;;7.67;65.93
77288;BME280;66345;42.694;23.346;2023-03-01T09:31:00;95976.88;;;7.11;66.90
77288;BME280;66345;42.694;23.346;2023-03-01T09:33:27;95984.88;;;7.01;67.64
77288;BME280;66345;42.694;23.346;2023-03-01T09:36:00;95988.59;;;6.90;68.20
77288;BME280;66345;42.694;23.346;2023-03-01T09:38:27;95973.28;;;6.94;68.33
77288;BME280;66345;42.694;23.346;2023-03-01T09:40:53;95969.47;;;6.71;69.48
77288;BME280;66345;42.694;23.346;2023-03-01T09:43:26;95975.97;;;7.28;68.05
77288;BME280;66345;42.694;23.346;2023-03-01T09:45:59;95967.28;;;7.10;69.15
77288;BME280;66345;42.694;23.346;2023-03-01T09:48:27;95964.09;;;7.58;67.10
77288;BME280;66345;42.694;23.346;2023-03-01T09:50:56;95966.94;;;7.73;66.11
77288;BME280;66345;42.694;23.346;2023-03-01T09:53:32;95969.50;;;7.48;65.71
77288;BME280;66345;42.694;23.346;2023-03-01T09:56:05;95969.03;;;7.61;65.46
77288;BME280;66345;42.694;23.346;2023-03-01T10:03:43;95947.88;;;7.95;63.07
77288;BME280;66345;42.694;23.346;2023-03-01T10:06:23;95945.94;;;8.22;62.09
77288;BME280;66345;42.694;23.346;2023-03-01T10:08:55;95953.47;;;7.92;63.20
77288;BME280;66345;42.694;23.346;2023-03-01T10:11:26;95952.44;;;7.77;64.01
77288;BME280;66345;42.694;23.346;2023-03-01T10:16:57;95944.84;;;7.82;64.62
77288;BME280;66345;42.694;23.346;2023-03-01T10:19:32;95938.22;;;7.78;65.09
77288;BME280;66345;42.694;23.346;2023-03-01T10:22:04;95940.63;;;8.14;64.09
77288;BME280;66345;42.694;23.346;2023-03-01T10:24:35;95942.88;;;7.84;64.64
77288;BME280;66345;42.694;23.346;2023-03-01T10:27:07;95926.59;;;7.55;65.21
77288;BME280;66345;42.694;23.346;2023-03-01T10:29:46;95916.47;;;7.92;64.09
77288;BME280;66345;42.694;23.346;2023-03-01T10:32:14;95914.91;;;8.24;63.36
77288;BME280;66345;42.694;23.346;2023-03-01T10:34:40;95922.16;;;8.22;63.44
77288;BME280;66345;42.694;23.346;2023-03-01T10:37:15;95924.84;;;8.38;63.01
77288;BME280;66345;42.694;23.346;2023-03-01T10:40:00;95919.94;;;7.93;64.24
77288;BME280;66345;42.694;23.346;2023-03-01T10:42:49;95919.16;;;7.50;65.27
77288;BME280;66345;42.694;23.346;2023-03-01T10:48:26;95915.19;;;7.96;63.20
77288;BME280;66345;42.694;23.346;2023-03-01T10:53:28;95924.59;;;8.15;62.96
77288;BME280;66345;42.694;23.346;2023-03-01T10:55:58;95915.38;;;8.19;61.89
77288;BME280;66345;42.694;23.346;2023-03-01T10:58:25;95907.59;;;8.10;62.77
77288;BME280;66345;42.694;23.346;2023-03-01T11:03:33;95920.19;;;8.97;60.23
77288;BME280;66345;42.694;23.346;2023-03-01T11:11:23;95910.13;;;8.68;61.54
77288;BME280;66345;42.694;23.346;2023-03-01T11:13:55;95912.13;;;8.66;61.48
77288;BME280;66345;42.694;23.346;2023-03-01T11:16:32;95922.88;;;8.48;61.93
77288;BME280;66345;42.694;23.346;2023-03-01T11:19:20;95913.28;;;8.39;62.11
77288;BME280;66345;42.694;23.346;2023-03-01T11:24:37;95917.22;;;8.84;61.51
77288;BME280;66345;42.694;23.346;2023-03-01T11:27:14;95911.28;;;8.33;62.96
77288;BME280;66345;42.694;23.346;2023-03-01T11:29:44;95900.22;;;8.62;62.60
77288;BME280;66345;42.694;23.346;2023-03-01T11:32:13;95910.28;;;8.67;62.17
77288;BME280;66345;42.694;23.346;2023-03-01T11:34:48;95904.63;;;8.29;63.20
77288;BME280;66345;42.694;23.346;2023-03-01T11:42:21;95898.72;;;8.76;62.01
77288;BME280;66345;42.694;23.346;2023-03-01T11:44:53;95894.28;;;8.36;63.41
77288;BME280;66345;42.694;23.346;2023-03-01T11:55:41;95870.47;;;8.52;62.62
77288;BME280;66345;42.694;23.346;2023-03-01T11:58:35;95858.13;;;9.08;61.21
77288;BME280;66345;42.694;23.346;2023-03-01T12:23:40;95866.81;;;8.61;62.62
77288;BME280;66345;42.694;23.346;2023-03-01T12:26:16;95855.91;;;8.31;63.49
77288;BME280;66345;42.694;23.346;2023-03-01T12:45:34;95838.88;;;8.34;63.72
77288;BME280;66345;42.694;23.346;2023-03-01T12:51:02;95842.88;;;8.54;63.37
77288;BME280;66345;42.694;23.346;2023-03-01T12:53:34;95841.19;;;8.21;64.41
77288;BME280;66345;42.694;23.346;2023-03-01T12:56:06;95838.22;;;8.32;64.16
77288;BME280;66345;42.694;23.346;2023-03-01T13:06:44;95839.91;;;8.49;63.29
77288;BME280;66345;42.694;23.346;2023-03-01T13:11:58;95844.03;;;8.36;64.53
77288;BME280;66345;42.694;23.346;2023-03-01T13:14:35;95854.41;;;8.29;65.00
77288;BME280;66345;42.694;23.346;2023-03-01T13:17:01;95844.47;;;7.90;66.66
77288;BME280;66345;42.694;23.346;2023-03-01T13:19:28;95848.13;;;8.30;65.29
77288;BME280;66345;42.694;23.346;2023-03-01T13:21:57;95843.84;;;8.37;64.91
77288;BME280;66345;42.694;23.346;2023-03-01T13:24:28;95845.50;;;8.63;63.90
77288;BME280;66345;42.694;23.346;2023-03-01T13:29:57;95842.03;;;8.70;63.72
77288;BME280;66345;42.694;23.346;2023-03-01T13:32:35;95848.13;;;7.97;65.96
77288;BME280;66345;42.694;23.346;2023-03-01T13:37:45;95849.63;;;8.24;65.92
77288;BME280;66345;42.694;23.346;2023-03-01T13:42:50;95847.63;;;7.94;67.07
77288;BME280;66345;42.694;23.346;2023-03-01T13:45:38;95841.84;;;7.90;67.38
77288;BME280;66345;42.694;23.346;2023-03-01T13:48:16;95844.31;;;7.92;67.15
77288;BME280;66345;42.694;23.346;2023-03-01T13:50:51;95843.81;;;7.88;67.68
77288;BME280;66345;42.694;23.346;2023-03-01T13:53:19;95846.63;;;7.78;67.82
77288;BME280;66345;42.694;23.346;2023-03-01T13:55:49;95841.81;;;7.82;67.78
77288;BME280;66345;42.694;23.346;2023-03-01T13:58:22;95839.53;;;7.95;67.71
77288;BME280;66345;42.694;23.346;2023-03-01T14:01:04;95849.59;;;7.92;67.75
77288;BME280;66345;42.694;23.346;2023-03-01T14:03:32;95834.53;;;7.76;68.45
77288;BME280;66345;42.694;23.346;2023-03-01T14:06:16;95834.25;;;7.95;67.90
77288;BME280;66345;42.694;23.346;2023-03-01T14:08:48;95834.91;;;8.05;67.53
77288;BME280;66345;42.694;23.346;2023-03-01T14:14:23;95840.53;;;8.27;67.07
77288;BME280;66345;42.694;23.346;2023-03-01T14:17:14;95828.63;;;8.15;67.19
77288;BME280;66345;42.694;23.346;2023-03-01T14:19:45;95831.72;;;7.77;68.22
77288;BME280;66345;42.694;23.346;2023-03-01T14:22:21;95831.78;;;8.18;67.24
77288;BME280;66345;42.694;23.346;2023-03-01T14:24:50;95836.06;;;7.87;68.22
77288;BME280;66345;42.694;23.346;2023-03-01T14:27:17;95823.34;;;8.23;66.87
77288;BME280;66345;42.694;23.346;2023-03-01T14:29:43;95829.63;;;7.89;68.27
77288;BME280;66345;42.694;23.346;2023-03-01T14:35:23;95825.34;;;7.96;68.33
77288;BME280;66345;42.694;23.346;2023-03-01T14:37:49;95832.44;;;7.96;67.96
77288;BME280;66345;42.694;23.346;2023-03-01T14:40:29;95829.25;;;7.60;69.54
77288;BME280;66345;42.694;23.346;2023-03-01T14:42:58;95822.47;;;7.57;69.74
77288;BME280;66345;42.694;23.346;2023-03-01T14:45:27;95832.03;;;7.58;69.85
77288;BME280;66345;42.694;23.346;2023-03-01T14:47:54;95825.28;;;7.64;69.37
77288;BME280;66345;42.694;23.346;2023-03-01T14:50:22;95838.97;;;7.59;69.41
77288;BME280;66345;42.694;23.346;2023-03-01T14:52:51;95825.56;;;7.44;69.87
77288;BME280;66345;42.694;23.346;2023-03-01T14:55:22;95836.09;;;7.36;70.05
77288;BME280;66345;42.694;23.346;2023-03-01T14:57:51;95827.22;;;7.45;70.06
77288;BME280;66345;42.694;23.346;2023-03-01T15:00:29;95820.00;;;7.64;69.51
77288;BME280;66345;42.694;23.346;2023-03-01T15:03:02;95817.34;;;7.56;69.92
77288;BME280;66345;42.694;23.346;2023-03-01T15:05:35;95818.25;;;7.30;70.46